Milledgeville, GA

12:06 PM EDT del 21 Settembre 2014 (GMT -0400)
Baldwin County | Change Station
CLOSE
Current Station
Aeroporto
Location: Milledgeville,
Altitudine: 384 ft
Stazioni meteo nelle vicinanze

Alt. 384 ft 33.15 °N, 83.24 °W | Updated 11 minutes ago

Sereno
Sereno
81 °F
Sembra 83 °F
N
6
Vento Variabile Vento da ONO

Oggi
Massima -- | Minima -- °F
--% Possibilità di precip.
Ieri
Massima -- | Minima -- °F
Precip. -- in
7:20 AM 7:31 PM
Luna calante, 6% visible
Pressione 30.05 in
Visibilità 10.0 miglia
Nuvole Sereno
Indice di calore 83 °F
Punto di rugiada 66 °F
Umidità 61%
Piovosità 0.00 in
Spessore del manto nevoso Non disponibile.
Raggi UV 8 fuori da 12
Polline 7.90 fuori da 12
Qualità dell'aria Non disponibile.
Flu Activity Non disponibile.
METAR KMLJ 211555Z AUTO 30005KT 10SM CLR 27/19 A3005 RMK AO2

More Conditions Fewer Conditions

Pressione 30.05 in
Visibilità 10.0 miglia
Nuvole Sereno
Indice di calore 83 °F
Punto di rugiada 66 °F
Umidità 61%
Piovosità 0.00 in
Spessore del manto nevoso Non disponibile.
Raggi UV 8 fuori da 12
Polline 7.90 fuori da 12
Qualità dell'aria Non disponibile.
Flu Activity Non disponibile.
METAR KMLJ 211555Z AUTO 30005KT 10SM CLR 27/19 A3005 RMK AO2

More Conditions Fewer Conditions

10-Day Weather Forecast

Almanac

Astronomia

Sep. 21, 2014 Alba Tramonto
Ora attuale 07:20 EDT 19:31 EDT
Crepuscolo civile 06:55 EDT 19:55 EDT
Crepuscolo nautico 06:26 EDT 20:24 EDT
Crepuscolo astronomico 05:57 EDT 20:53 EDT
Luna 04:59 EDT 18:02 EDT
Estensione della luce visibile 13h 00m
Lunghezza del giorno
12h 10m
Tomorrow will be 2m 2s shorter.
Luna calante, 6% of the Moon is Illuminated
Oggi
Luna calante
Set 24
Nuovo
Ott 1
Primo quarto
Ott 8
Luna piena
Ott 15
Ultimo quarto

Gli estremi di oggi

State Highs State Lows

Community

WunderPhotos

Upload Photos

1,755,181 foto caricate!

Nearby

Profondità neve

Stazione Profondità Altitudine
Non sono state evidenziate nuove nevicate

Attività sismica

Città  Distanza Mag. Data & Ora
New Ellenton, South Carolina 90 miglia 2.6 16:38 EDT
2014-09-19
Minimo Magnitudo Mostrato è 2.5.

Temperature delle acque costiere

Località Temperatura
Nessun dato dalle stazioni

Stazioni meteo nelle vicinanze